Time;durP1;ratioP1;P1;durP2;ratioP2;P2;SDS_P1;SDS_P2;PMS_P1;PMS_P2;Temp;Humidity;BMP_temperature;BMP_pressure;BME280_temperature;BME280_humidity;BME280_pressure;Samples;Min_cycle;Max_cycle;Signal;HPM_P1;HPM_P2
2023/04/22 00:00:18;;;;;;;71.20;55.80;;;;;;;8.48;58.36;100426.23;113158;1237;23671;-77
2023/04/22 00:03:07;;;;;;;75.10;55.30;;;;;;;8.41;58.34;100424.00;113275;1238;23932;-78
2023/04/22 00:05:43;;;;;;;76.20;53.80;;;;;;;8.34;58.48;100418.44;113231;1233;23690;-79
2023/04/22 00:08:16;;;;;;;75.20;54.30;;;;;;;8.28;58.63;100414.45;113231;1237;22638;-79
2023/04/22 00:10:49;;;;;;;69.60;52.30;;;;;;;8.25;58.84;100415.05;113408;1237;22070;-79
2023/04/22 00:13:25;;;;;;;69.20;51.40;;;;;;;8.21;59.00;100411.52;113312;1237;23854;-77
2023/04/22 00:16:08;;;;;;;65.40;51.00;;;;;;;8.17;59.20;100411.79;113027;1237;21989;-77
2023/04/22 00:18:41;;;;;;;73.70;51.30;;;;;;;8.14;59.52;100412.58;112938;1237;21953;-76
2023/04/22 00:21:14;;;;;;;81.50;56.60;;;;;;;8.13;59.58;100412.61;112908;1237;21961;-77
2023/04/22 00:23:46;;;;;;;69.20;53.10;;;;;;;8.10;59.81;100415.45;113178;1237;21971;-80
2023/04/22 00:26:19;;;;;;;65.30;50.30;;;;;;;8.06;59.77;100415.73;113487;1233;23012;-79
2023/04/22 00:28:57;;;;;;;70.80;49.00;;;;;;;8.03;60.01;100416.15;113184;1238;21917;-77
2023/04/22 00:31:32;;;;;;;71.70;49.40;;;;;;;8.01;60.34;100412.23;112889;1238;21936;-79
2023/04/22 00:34:09;;;;;;;66.70;50.90;;;;;;;7.99;60.42;100407.95;112876;1238;23005;-79
2023/04/22 00:36:51;;;;;;;62.10;47.50;;;;;;;7.97;60.55;100406.78;112719;1242;22139;-78
2023/04/22 00:39:34;;;;;;;69.10;48.50;;;;;;;7.96;60.63;100404.54;112542;1242;22512;-79
2023/04/22 00:42:12;;;;;;;63.10;48.10;;;;;;;7.92;60.69;100402.22;112602;1242;21943;-78
2023/04/22 00:44:47;;;;;;;63.50;47.20;;;;;;;7.90;60.66;100398.63;112561;1242;24844;-79
2023/04/22 00:47:25;;;;;;;64.00;49.40;;;;;;;7.87;60.79;100399.92;113177;1236;21976;-78
2023/04/22 00:50:04;;;;;;;66.90;50.90;;;;;;;7.82;60.85;100398.30;113437;1236;21942;-77
2023/04/22 00:52:40;;;;;;;67.10;51.60;;;;;;;7.77;61.03;100395.84;112558;1233;23512;-80
2023/04/22 00:55:22;;;;;;;65.50;50.40;;;;;;;7.74;61.22;100393.85;112033;1242;22264;-79
2023/04/22 00:57:57;;;;;;;54.50;44.50;;;;;;;7.71;61.17;100396.36;112438;1242;22007;-79
2023/04/22 01:00:34;;;;;;;59.60;47.20;;;;;;;7.67;61.32;100395.95;112421;1242;23616;-79
2023/04/22 01:03:06;;;;;;;62.10;49.60;;;;;;;7.62;61.47;100393.11;112491;1233;21994;-79
2023/04/22 01:05:44;;;;;;;58.10;44.60;;;;;;;7.59;61.59;100390.93;112955;1242;23037;-79
2023/04/22 01:08:28;;;;;;;58.90;44.60;;;;;;;7.58;61.78;100388.72;112605;1241;21942;-78
2023/04/22 01:11:07;;;;;;;59.00;45.10;;;;;;;7.55;61.91;100382.74;112596;1238;22423;-78
2023/04/22 01:13:45;;;;;;;63.20;45.00;;;;;;;7.52;61.95;100389.73;112862;1233;21961;-78
2023/04/22 01:16:27;;;;;;;55.90;44.60;;;;;;;7.50;62.08;100392.87;113431;1232;23578;-78
2023/04/22 01:19:01;;;;;;;55.80;44.80;;;;;;;7.47;62.06;100390.01;113537;1232;23565;-79
2023/04/22 01:21:45;;;;;;;55.30;43.40;;;;;;;7.43;62.08;100390.46;113522;1232;21940;-78
2023/04/22 01:24:22;;;;;;;56.60;41.70;;;;;;;7.38;62.10;100390.05;113542;1232;21960;-79
2023/04/22 01:26:53;;;;;;;58.90;42.40;;;;;;;7.34;62.15;100389.81;112764;1239;21942;-79
2023/04/22 01:29:46;;;;;;;49.30;43.40;;;;;;;7.30;62.43;100389.38;112212;1244;22102;-79
2023/04/22 01:32:19;;;;;;;58.20;44.40;;;;;;;7.25;62.24;100392.64;112257;1244;22088;-78
2023/04/22 01:34:54;;;;;;;53.40;41.70;;;;;;;7.20;62.46;100393.41;112269;1244;21977;-79
2023/04/22 01:37:28;;;;;;;52.30;41.30;;;;;;;7.17;62.52;100393.85;112433;1244;23069;-80
2023/04/22 01:40:18;;;;;;;54.90;43.70;;;;;;;7.14;62.67;100397.73;112252;1243;22348;-78
2023/04/22 01:42:51;;;;;;;49.70;40.70;;;;;;;7.09;62.76;100397.66;111734;1248;22194;-79
2023/04/22 01:45:34;;;;;;;56.20;41.90;;;;;;;7.05;62.98;100404.50;112386;1239;23634;-79
2023/04/22 01:48:12;;;;;;;65.30;44.90;;;;;;;7.01;63.06;100405.98;112810;1237;21957;-79
2023/04/22 01:50:48;;;;;;;;;;;;;;;6.98;63.14;100404.65;113275;1237;23549;-79
2023/04/22 01:53:24;;;;;;;54.30;40.20;;;;;;;6.86;63.43;100406.64;112476;1243;23012;-80
2023/04/22 01:55:54;;;;;;;58.60;42.50;;;;;;;6.82;63.47;100404.81;111729;1248;22993;-80
2023/04/22 01:58:38;;;;;;;52.50;41.40;;;;;;;6.79;63.43;100405.74;111906;1248;21995;-80
2023/04/22 02:01:29;;;;;;;54.30;41.70;;;;;;;6.76;63.63;100404.25;112080;1243;23008;-78
2023/04/22 02:04:00;;;;;;;51.00;39.90;;;;;;;6.75;63.68;100405.48;112583;1243;21978;-79
2023/04/22 02:06:45;;;;;;;53.60;40.30;;;;;;;6.75;63.77;100404.11;112518;1244;22370;-80
2023/04/22 02:09:27;;;;;;;55.30;40.60;;;;;;;6.72;63.87;100401.92;112330;1244;23719;-79
2023/04/22 02:12:07;;;;;;;56.80;41.60;;;;;;;6.71;63.90;100401.95;112538;1240;21947;-79
2023/04/22 02:14:38;;;;;;;57.50;44.70;;;;;;;6.69;64.01;100401.13;113095;1240;23042;-79
2023/04/22 02:17:07;;;;;;;49.20;40.80;;;;;;;6.67;64.00;100401.00;112651;1240;22804;-80
2023/04/22 02:19:51;;;;;;;54.10;43.60;;;;;;;6.63;64.11;100399.16;112585;1224;21944;-79
2023/04/22 02:22:29;;;;;;;58.80;44.30;;;;;;;6.61;64.17;100401.11;113544;1233;21957;-78
2023/04/22 02:25:05;;;;;;;58.20;43.70;;;;;;;6.57;64.27;100401.35;113418;1233;22039;-78
2023/04/22 02:27:38;;;;;;;58.00;46.00;;;;;;;6.54;64.28;100400.05;113269;1233;21946;-80
2023/04/22 02:30:10;;;;;;;59.70;45.70;;;;;;;6.52;64.36;100398.88;113786;1233;21950;-78
2023/04/22 02:32:39;;;;;;;57.70;43.40;;;;;;;6.49;64.46;100400.50;113395;1232;21951;-78
2023/04/22 02:35:17;;;;;;;55.10;43.60;;;;;;;6.46;64.57;100398.83;113546;1229;21967;-77
2023/04/22 02:37:57;;;;;;;57.10;42.60;;;;;;;6.44;64.68;100397.48;113381;1232;21935;-80
2023/04/22 02:40:40;;;;;;;54.90;43.20;;;;;;;6.41;64.74;100399.09;113727;1232;21938;-78
2023/04/22 02:43:13;;;;;;;52.70;42.80;;;;;;;6.38;64.71;100399.34;113435;1232;21941;-78
2023/04/22 02:45:52;;;;;;;58.90;40.40;;;;;;;6.34;64.79;100401.30;113747;1232;22738;-78
2023/04/22 02:48:21;;;;;;;54.70;40.40;;;;;;;6.32;64.85;100398.41;112897;1238;21992;-79
2023/04/22 02:50:58;;;;;;;56.60;41.90;;;;;;;6.28;64.81;100396.95;113103;1238;23571;-79
2023/04/22 02:53:35;;;;;;;53.80;42.00;;;;;;;6.23;64.90;100394.95;113207;1237;21938;-79
2023/04/22 02:56:07;;;;;;;51.30;41.30;;;;;;;6.21;65.03;100395.52;113194;1237;21965;-78
2023/04/22 02:58:48;;;;;;;58.60;43.20;;;;;;;6.17;65.07;100391.77;112348;1244;21968;-77
2023/04/22 03:01:20;;;;;;;55.40;45.20;;;;;;;6.15;65.09;100392.02;111860;1245;21983;-80
2023/04/22 03:03:57;;;;;;;60.50;42.70;;;;;;;6.14;65.25;100389.95;112174;1245;23028;-80
2023/04/22 03:06:33;;;;;;;58.60;45.10;;;;;;;6.11;65.32;100389.64;112356;1239;22157;-78
2023/04/22 03:09:08;;;;;;;51.40;42.60;;;;;;;6.09;65.28;100388.48;112116;1244;23678;-75
2023/04/22 03:11:48;;;;;;;58.50;43.30;;;;;;;6.05;65.28;100390.98;112169;1244;22126;-79
2023/04/22 03:14:22;;;;;;;53.30;43.40;;;;;;;6.01;65.24;100389.50;112404;1244;23837;-79
2023/04/22 03:16:53;;;;;;;57.90;44.30;;;;;;;5.98;65.31;100386.42;112565;1238;21962;-79
2023/04/22 03:19:25;;;;;;;61.80;47.10;;;;;;;5.95;65.33;100386.81;112475;1242;22057;-80
2023/04/22 03:22:03;;;;;;;59.90;46.60;;;;;;;5.91;65.36;100384.80;112583;1241;21945;-79
2023/04/22 03:24:32;;;;;;;60.90;44.80;;;;;;;5.88;65.41;100380.88;112541;1242;21971;-82
2023/04/22 03:27:13;;;;;;;53.00;43.50;;;;;;;5.88;65.72;100386.59;112702;1238;21952;-77
2023/04/22 03:29:47;;;;;;;56.60;43.90;;;;;;;5.86;65.76;100386.96;112905;1238;22831;-79
2023/04/22 03:32:27;;;;;;;49.50;41.70;;;;;;;5.86;65.78;100389.91;113018;1228;21950;-80
2023/04/22 03:35:15;;;;;;;51.90;41.60;;;;;;;5.84;65.91;100390.27;112904;1237;21966;-78
2023/04/22 03:37:50;;;;;;;56.00;44.50;;;;;;;5.85;66.09;100389.41;113395;1233;22866;-79
2023/04/22 03:40:32;;;;;;;49.40;42.70;;;;;;;5.86;66.19;100385.23;113725;1232;21932;-80
2023/04/22 03:43:11;;;;;;;56.60;46.80;;;;;;;5.88;66.36;100382.79;113586;1232;23604;-79
2023/04/22 03:45:49;;;;;;;55.00;46.80;;;;;;;5.89;66.38;100378.80;113517;1232;23668;-78
2023/04/22 03:48:28;;;;;;;50.80;41.50;;;;;;;5.90;66.35;100382.41;113654;1232;22861;-81
2023/04/22 03:51:05;;;;;;;60.50;46.40;;;;;;;5.89;66.19;100383.97;113510;1232;23648;-79
2023/04/22 03:53:46;;;;;;;59.10;46.20;;;;;;;5.89;66.38;100385.86;113420;1229;21993;-79
2023/04/22 03:56:23;;;;;;;60.80;47.40;;;;;;;5.88;66.45;100386.75;113563;1232;23569;-78
2023/04/22 03:58:56;;;;;;;59.30;45.00;;;;;;;5.91;66.66;100385.84;113601;1232;22122;-77
2023/04/22 04:01:30;;;;;;;52.20;42.50;;;;;;;5.95;66.69;100386.14;113598;1232;21963;-77
2023/04/22 04:04:02;;;;;;;46.60;39.60;;;;;;;5.97;66.72;100385.05;113489;1232;21980;-77
2023/04/22 04:06:51;;;;;;;52.50;41.30;;;;;;;6.00;66.66;100384.52;113511;1232;21940;-77
2023/04/22 04:09:26;;;;;;;54.80;42.30;;;;;;;6.04;66.64;100383.92;113498;1232;21952;-77
2023/04/22 04:11:57;;;;;;;50.00;38.70;;;;;;;6.10;66.85;100383.27;112843;1240;21976;-77
2023/04/22 04:14:30;;;;;;;50.60;39.10;;;;;;;6.24;67.26;100382.67;112737;1240;21948;-77
2023/04/22 04:17:03;;;;;;;49.60;40.00;;;;;;;6.42;67.59;100380.42;112901;1240;21950;-79
2023/04/22 04:19:41;;;;;;;55.50;40.10;;;;;;;6.62;67.70;100377.73;112459;1240;21954;-77
2023/04/22 04:22:26;;;;;;;48.10;39.30;;;;;;;6.83;67.57;100376.44;113065;1239;23648;-79
2023/04/22 04:25:05;;;;;;;49.10;40.40;;;;;;;6.99;67.27;100376.95;113039;1240;23698;-78
2023/04/22 04:27:42;;;;;;;54.10;42.40;;;;;;;7.16;66.85;100377.77;112950;1240;22051;-78
2023/04/22 04:30:27;;;;;;;58.30;47.70;;;;;;;7.32;66.57;100377.05;113266;1233;23700;-79
2023/04/22 04:33:16;;;;;;;52.20;43.90;;;;;;;7.47;66.21;100375.82;113054;1237;22477;-77
2023/04/22 04:35:59;;;;;;;59.70;43.60;;;;;;;7.60;65.84;100376.36;112625;1238;23104;-78
2023/04/22 04:38:34;;;;;;;53.40;39.90;;;;;;;7.75;65.64;100380.67;112819;1238;21952;-78
2023/04/22 04:41:07;;;;;;;52.60;40.30;;;;;;;7.87;65.25;100379.15;112958;1238;22017;-79
2023/04/22 04:43:39;;;;;;;70.70;44.00;;;;;;;7.97;64.78;100378.34;113045;1238;21956;-80
2023/04/22 04:46:40;;;;;;;66.80;42.60;;;;;;;8.08;64.54;100386.38;113017;1238;22713;-79
2023/04/22 04:49:13;;;;;;;54.50;42.90;;;;;;;8.16;64.43;100384.24;112380;1242;23288;-79
2023/04/22 04:51:49;;;;;;;50.90;40.70;;;;;;;8.30;64.32;100387.34;112774;1236;22072;-79
2023/04/22 04:54:22;;;;;;;52.50;40.20;;;;;;;8.46;64.18;100387.80;112272;1242;22012;-77
2023/04/22 04:56:57;;;;;;;50.10;39.30;;;;;;;8.63;64.02;100385.74;112449;1242;21947;-77
2023/04/22 04:59:27;;;;;;;51.40;39.60;;;;;;;8.83;63.77;100388.65;111979;1242;21964;-78
2023/04/22 05:01:59;;;;;;;50.20;39.50;;;;;;;8.99;63.42;100386.77;112416;1242;21981;-79
2023/04/22 05:04:32;;;;;;;44.80;39.90;;;;;;;9.14;63.08;100389.23;112376;1242;24375;-80
2023/04/22 05:07:09;;;;;;;45.80;38.90;;;;;;;9.27;62.71;100383.45;112111;1239;23724;-80
2023/04/22 05:09:42;;;;;;;47.00;38.60;;;;;;;9.40;62.46;100382.02;112907;1239;23005;-80
2023/04/22 05:12:17;;;;;;;50.00;38.90;;;;;;;9.51;62.31;100376.76;113118;1232;22297;-78
2023/04/22 05:14:51;;;;;;;47.80;39.60;;;;;;;9.67;62.10;100380.92;112951;1239;23015;-79
2023/04/22 05:17:29;;;;;;;48.30;38.50;;;;;;;9.82;61.87;100383.39;112568;1239;23558;-78
2023/04/22 05:20:03;;;;;;;54.00;39.70;;;;;;;9.96;61.79;100378.55;112899;1240;21948;-79
2023/04/22 05:22:44;;;;;;;48.50;40.20;;;;;;;10.10;61.52;100380.30;112626;1232;21965;-79
2023/04/22 05:25:25;;;;;;;45.60;39.40;;;;;;;10.25;61.27;100381.89;112802;1239;21942;-80
2023/04/22 05:28:03;;;;;;;46.50;40.90;;;;;;;10.38;60.70;100381.80;112862;1239;23585;-78
2023/04/22 05:30:41;;;;;;;52.20;40.80;;;;;;;10.48;60.23;100385.05;112861;1239;21945;-78
2023/04/22 05:33:15;;;;;;;48.20;41.90;;;;;;;10.65;60.29;100386.56;112901;1232;21947;-78
2023/04/22 05:35:50;;;;;;;50.80;42.30;;;;;;;10.88;60.60;100380.95;113498;1232;22848;-79
2023/04/22 05:38:21;;;;;;;54.00;42.50;;;;;;;11.18;60.29;100386.06;113531;1232;21979;-79
2023/04/22 05:40:55;;;;;;;49.30;39.10;;;;;;;11.49;59.66;100382.73;113551;1232;23662;-79
2023/04/22 05:43:28;;;;;;;56.80;48.20;;;;;;;11.76;58.91;100380.04;112809;1238;21980;-79
2023/04/22 05:46:13;;;;;;;47.90;39.50;;;;;;;11.96;57.86;100378.85;112994;1235;22698;-79
2023/04/22 05:48:43;;;;;;;45.60;40.70;;;;;;;12.21;57.23;100380.08;112869;1238;21948;-78
2023/04/22 05:51:26;;;;;;;48.60;39.70;;;;;;;12.47;56.67;100383.61;112999;1238;21968;-79
2023/04/22 05:53:55;;;;;;;45.70;38.20;;;;;;;12.78;56.04;100383.05;113584;1238;23680;-78
2023/04/22 05:56:30;;;;;;;47.80;39.10;;;;;;;13.17;55.19;100380.73;113207;1238;21976;-79
2023/04/22 05:59:02;;;;;;;44.30;39.50;;;;;;;13.48;54.27;100382.92;113056;1238;22032;-80
2023/04/22 06:01:30;;;;;;;46.50;38.00;;;;;;;13.79;53.31;100388.03;113323;1232;22993;-79
2023/04/22 06:04:08;;;;;;;44.10;37.80;;;;;;;14.10;52.61;100387.84;113442;1232;22952;-78
2023/04/22 06:06:47;;;;;;;45.80;38.90;;;;;;;14.53;52.46;100391.75;113543;1232;22170;-78
2023/04/22 06:09:20;;;;;;;54.10;42.10;;;;;;;15.02;51.70;100392.23;113668;1232;23018;-80
2023/04/22 06:11:49;;;;;;;48.70;41.40;;;;;;;15.50;50.26;100386.02;113209;1237;23697;-77
2023/04/22 06:14:22;;;;;;;44.40;38.90;;;;;;;15.88;49.23;100388.04;112963;1237;23752;-78
2023/04/22 06:16:55;;;;;;;40.50;35.00;;;;;;;16.26;48.37;100388.21;113262;1237;23770;-78
2023/04/22 06:19:24;;;;;;;40.20;35.20;;;;;;;16.56;46.92;100389.33;113072;1237;21953;-79
2023/04/22 06:21:57;;;;;;;40.90;35.20;;;;;;;16.85;46.24;100390.52;113268;1236;21948;-80
2023/04/22 06:24:35;;;;;;;38.40;32.60;;;;;;;17.18;45.57;100392.14;113272;1237;22380;-79
2023/04/22 06:27:30;;;;;;;43.60;31.80;;;;;;;17.46;44.43;100388.56;113408;1235;23075;-79
2023/04/22 06:30:10;;;;;;;39.00;31.90;;;;;;;17.71;43.65;100389.58;113488;1232;22683;-79
2023/04/22 06:32:42;;;;;;;38.90;31.30;;;;;;;18.09;43.17;100385.09;113586;1232;21940;-81
2023/04/22 06:35:13;;;;;;;42.50;30.30;;;;;;;18.43;42.26;100384.50;114004;1232;21949;-80
2023/04/22 06:37:48;;;;;;;35.00;30.70;;;;;;;18.70;41.42;100386.84;113906;1232;21957;-79
2023/04/22 06:40:19;;;;;;;;;;;;;;;18.89;39.57;100385.84;113599;1232;21958;-81
2023/04/22 06:42:55;;;;;;;38.90;32.20;;;;;;;18.90;38.34;100384.17;113885;1232;21934;-80
2023/04/22 06:46:03;;;;;;;45.40;36.30;;;;;;;19.02;38.24;100384.59;113580;1232;21956;-80
2023/04/22 06:48:58;;;;;;;34.30;30.20;;;;;;;19.17;38.23;100380.86;113720;1232;21951;-80
2023/04/22 06:51:45;;;;;;;35.20;29.40;;;;;;;19.46;37.87;100378.89;113943;1232;24989;-79
2023/04/22 06:54:18;;;;;;;33.40;29.50;;;;;;;19.81;37.66;100383.00;113809;1232;24165;-79
2023/04/22 06:56:47;;;;;;;34.90;27.30;;;;;;;20.14;36.88;100377.78;113630;1232;23679;-84
2023/04/22 06:59:24;;;;;;;32.20;28.40;;;;;;;20.42;36.61;100381.46;113675;1232;22712;-80
2023/04/22 07:02:06;;;;;;;37.50;28.70;;;;;;;20.75;35.78;100382.09;114090;1232;21965;-79
2023/04/22 07:04:41;;;;;;;30.10;25.70;;;;;;;21.06;34.72;100384.17;113906;1232;24634;-80
2023/04/22 07:07:21;;;;;;;33.10;26.70;;;;;;;21.34;34.35;100383.31;113326;1239;23575;-79
2023/04/22 07:09:52;;;;;;;32.90;25.50;;;;;;;21.59;33.82;100381.05;113180;1239;23573;-79
2023/04/22 07:12:26;;;;;;;25.80;21.00;;;;;;;21.85;33.12;100383.52;113414;1239;22799;-79
2023/04/22 07:14:55;;;;;;;20.70;18.50;;;;;;;22.03;32.22;100385.34;113038;1239;22094;-79
2023/04/22 07:17:26;;;;;;;23.20;19.60;;;;;;;22.15;31.35;100385.22;113241;1237;21962;-79
2023/04/22 07:19:55;;;;;;;22.40;18.40;;;;;;;22.30;31.06;100382.52;113023;1239;23694;-80
2023/04/22 07:22:31;;;;;;;24.70;19.30;;;;;;;22.52;30.65;100386.09;113196;1239;21936;-79
2023/04/22 07:25:00;;;;;;;26.20;19.70;;;;;;;22.77;30.73;100386.39;113375;1233;22017;-79
2023/04/22 07:27:37;;;;;;;22.40;19.10;;;;;;;23.03;30.27;100383.25;113972;1232;22064;-79
2023/04/22 07:30:23;;;;;;;26.10;18.40;;;;;;;23.22;29.28;100381.92;113961;1232;21934;-79
2023/04/22 07:32:56;;;;;;;20.60;17.60;;;;;;;23.27;28.78;100381.48;113926;1232;22585;-81
2023/04/22 07:35:33;;;;;;;23.20;18.30;;;;;;;23.44;28.78;100379.52;113575;1232;22993;-80
2023/04/22 07:38:03;;;;;;;23.50;19.50;;;;;;;23.68;28.50;100375.05;113444;1238;22287;-79
2023/04/22 07:40:33;;;;;;;;;;;;;;;23.97;28.39;100377.11;112244;1245;21961;-81
2023/04/22 07:43:02;;;;;;;21.50;17.50;;;;;;;24.07;27.90;100377.49;112441;1245;21960;-80
2023/04/22 07:45:36;;;;;;;20.80;18.50;;;;;;;24.46;28.51;100376.84;112010;1248;23374;-78
2023/04/22 07:48:08;;;;;;;24.10;19.30;;;;;;;24.82;27.28;100379.19;111910;1248;21949;-77
2023/04/22 07:51:13;;;;;;;21.50;17.70;;;;;;;25.00;26.77;100377.16;111406;1252;21983;-84
2023/04/22 07:54:00;;;;;;;20.20;16.40;;;;;;;24.91;25.97;100372.51;111396;1252;22406;-78
2023/04/22 07:56:29;;;;;;;18.30;16.40;;;;;;;24.85;26.32;100376.64;111904;1247;23017;-78
2023/04/22 07:59:05;;;;;;;21.40;17.30;;;;;;;24.97;26.52;100374.42;112146;1246;23527;-78
2023/04/22 08:01:39;;;;;;;18.90;15.90;;;;;;;25.17;26.20;100374.54;111784;1247;21975;-77
2023/04/22 08:04:13;;;;;;;19.70;17.60;;;;;;;25.39;25.74;100371.82;112027;1244;23015;-81
2023/04/22 08:06:47;;;;;;;;;;;;;;;25.56;25.47;100373.91;112962;1238;21943;-82
2023/04/22 08:09:37;;;;;;;18.60;16.70;;;;;;;25.53;25.70;100369.71;113370;1233;21955;-80
2023/04/22 08:12:13;;;;;;;22.80;18.10;;;;;;;25.57;25.89;100368.14;113877;1233;22253;-79
2023/04/22 08:14:42;;;;;;;17.80;16.00;;;;;;;25.64;25.96;100369.05;113735;1232;21946;-80
2023/04/22 08:17:20;;;;;;;17.60;15.20;;;;;;;25.81;25.99;100369.95;113305;1238;22570;-79
2023/04/22 08:19:50;;;;;;;22.80;17.30;;;;;;;26.11;25.81;100370.47;113337;1238;23706;-79
2023/04/22 08:22:24;;;;;;;21.10;13.60;;;;;;;26.29;25.34;100368.77;112563;1242;21954;-80
2023/04/22 08:25:03;;;;;;;15.00;13.00;;;;;;;26.29;24.85;100368.30;112710;1242;21968;-81
2023/04/22 08:28:13;;;;;;;16.10;14.30;;;;;;;26.32;24.93;100363.72;112886;1242;21979;-81
2023/04/22 08:30:54;;;;;;;17.10;15.30;;;;;;;26.33;24.71;100364.47;112729;1242;21978;-79
2023/04/22 08:33:31;;;;;;;19.50;15.70;;;;;;;26.33;24.31;100364.10;112651;1242;21969;-79
2023/04/22 08:36:07;;;;;;;16.80;13.50;;;;;;;26.34;23.75;100362.73;112683;1242;22802;-80
2023/04/22 08:38:53;;;;;;;14.30;12.00;;;;;;;26.56;24.10;100365.48;112578;1242;23722;-79
2023/04/22 08:42:51;;;;;;;14.20;12.80;;;;;;;26.79;23.68;100360.91;113090;1238;22314;-80
2023/04/22 08:46:20;;;;;;;15.20;11.00;;;;;;;27.18;22.52;100358.48;112631;1242;23700;-80
2023/04/22 08:50:22;;;;;;;16.00;12.00;;;;;;;27.35;22.67;100357.61;112698;1242;21950;-79
2023/04/22 08:54:57;;;;;;;12.10;10.70;;;;;;;27.74;22.52;100357.77;112216;1248;22107;-78
2023/04/22 08:57:53;;;;;;;20.60;10.80;;;;;;;27.83;21.31;100356.09;111557;1254;21977;-80
2023/04/22 09:00:39;;;;;;;10.80;9.80;;;;;;;27.57;20.91;100357.48;111301;1255;21984;-80
2023/04/22 09:03:17;;;;;;;15.40;11.00;;;;;;;27.54;20.91;100356.23;111414;1256;23701;-80
2023/04/22 09:05:52;;;;;;;13.20;11.60;;;;;;;27.62;21.21;100354.80;111284;1256;22984;-79
2023/04/22 09:08:28;;;;;;;15.90;10.50;;;;;;;27.96;21.31;100354.46;111271;1255;21969;-79
2023/04/22 09:11:04;;;;;;;14.20;10.60;;;;;;;28.25;20.95;100349.31;111413;1251;21979;-79
2023/04/22 09:13:42;;;;;;;11.90;8.90;;;;;;;28.43;20.38;100349.83;111697;1251;22015;-81
2023/04/22 09:16:40;;;;;;;9.50;6.20;;;;;;;28.52;20.11;100348.42;111979;1248;21979;-78
2023/04/22 09:19:31;;;;;;;9.20;5.50;;;;;;;28.57;19.36;100349.97;112235;1245;21961;-78
2023/04/22 09:22:23;;;;;;;7.90;5.60;;;;;;;28.54;18.80;100345.71;112204;1242;23034;-80
2023/04/22 09:25:26;;;;;;;10.30;4.90;;;;;;;28.60;18.22;100343.20;111296;1255;23795;-80
2023/04/22 09:28:17;;;;;;;6.60;4.70;;;;;;;28.54;18.23;100343.13;111249;1252;21978;-80
2023/04/22 09:31:04;;;;;;;8.20;6.30;;;;;;;28.55;17.84;100341.05;111821;1252;23642;-80
2023/04/22 09:33:43;;;;;;;6.70;6.10;;;;;;;28.36;17.69;100338.59;111313;1252;23648;-81
2023/04/22 09:36:18;;;;;;;7.30;6.30;;;;;;;28.24;17.42;100333.30;111561;1252;21987;-79
2023/04/22 09:39:15;;;;;;;11.40;6.10;;;;;;;27.87;17.26;100333.39;111342;1252;21989;-83
2023/04/22 09:42:23;;;;;;;8.60;6.30;;;;;;;27.57;17.88;100332.20;112272;1242;21943;-80
2023/04/22 09:45:12;;;;;;;8.10;6.70;;;;;;;27.68;17.98;100321.48;112382;1242;22024;-80
2023/04/22 09:48:22;;;;;;;8.60;6.70;;;;;;;27.68;18.00;100316.98;113267;1238;24302;-82
2023/04/22 09:51:17;;;;;;;11.00;9.70;;;;;;;27.96;18.10;100317.45;113049;1238;22963;-81
2023/04/22 09:54:10;;;;;;;6.80;6.10;;;;;;;27.82;17.47;100319.17;113144;1232;21956;-78
2023/04/22 09:56:52;;;;;;;11.00;6.50;;;;;;;27.48;17.26;100317.61;113490;1232;21927;-80
2023/04/22 09:59:37;;;;;;;8.20;6.20;;;;;;;27.50;17.80;100315.77;113693;1232;23016;-81
2023/04/22 10:02:16;;;;;;;;;;;;;;;27.68;17.55;100313.98;109834;1232;5308216;-81
2023/04/22 10:04:56;;;;;;;6.80;5.40;;;;;;;27.36;17.08;100314.81;113016;1240;23603;-80
2023/04/22 10:07:41;;;;;;;6.60;5.90;;;;;;;26.96;17.19;100313.59;112838;1243;23362;-81
2023/04/22 10:10:37;;;;;;;6.80;6.20;;;;;;;26.63;17.64;100312.84;112894;1242;21976;-81
2023/04/22 10:13:24;;;;;;;7.50;6.10;;;;;;;26.77;18.24;100311.67;112786;1242;22015;-82
2023/04/22 10:16:03;;;;;;;10.50;5.70;;;;;;;27.19;18.27;100307.90;112797;1242;21982;-79
2023/04/22 10:18:54;;;;;;;6.30;5.50;;;;;;;27.55;17.95;100299.27;112855;1242;23626;-81
2023/04/22 10:21:41;;;;;;;8.10;5.90;;;;;;;27.34;17.07;100296.56;112042;1247;22011;-78
2023/04/22 10:24:36;;;;;;;8.90;5.60;;;;;;;27.09;17.86;100294.98;112594;1242;21991;-81
2023/04/22 10:28:17;;;;;;;11.70;6.00;;;;;;;27.35;18.07;100292.59;112796;1242;23014;-80
2023/04/22 10:31:40;;;;;;;6.50;5.40;;;;;;;27.58;17.67;100292.57;112379;1247;21932;-80
2023/04/22 10:34:40;;;;;;;9.30;6.20;;;;;;;27.55;17.28;100291.27;112124;1247;21994;-78
2023/04/22 10:37:24;;;;;;;12.10;9.30;;;;;;;27.28;17.20;100285.95;112061;1247;22001;-83
2023/04/22 10:40:23;;;;;;;9.40;7.10;;;;;;;26.87;17.40;100286.09;112924;1241;21947;-80
2023/04/22 10:43:05;;;;;;;8.90;6.80;;;;;;;26.33;17.75;100286.00;112533;1241;22229;-80
2023/04/22 10:45:50;;;;;;;10.60;7.20;;;;;;;25.84;18.16;100282.18;112836;1238;23009;-80
2023/04/22 10:49:06;;;;;;;6.90;6.10;;;;;;;25.56;18.69;100279.40;113175;1234;23105;-81
2023/04/22 10:52:17;;;;;;;8.30;6.90;;;;;;;25.22;18.70;100277.34;113537;1232;22538;-81
2023/04/22 10:54:54;;;;;;;7.70;6.20;;;;;;;24.86;18.93;100275.98;113568;1232;21960;-79
2023/04/22 10:57:58;;;;;;;8.30;6.30;;;;;;;24.50;19.30;100277.48;114006;1232;22391;-81
2023/04/22 11:01:01;;;;;;;7.40;6.70;;;;;;;24.32;19.67;100273.20;113721;1232;23598;-81
2023/04/22 11:03:54;;;;;;;10.60;7.10;;;;;;;24.09;19.65;100271.20;113924;1232;22261;-82
2023/04/22 11:06:34;;;;;;;8.30;6.90;;;;;;;23.87;19.96;100268.65;114026;1232;21938;-81
2023/04/22 11:09:46;;;;;;;10.20;5.80;;;;;;;23.61;20.34;100264.29;114000;1232;21947;-83
2023/04/22 11:12:40;;;;;;;10.90;6.60;;;;;;;23.47;20.69;100259.44;113552;1238;21957;-81
2023/04/22 11:15:56;;;;;;;8.30;6.00;;;;;;;23.33;21.22;100255.20;113398;1238;22135;-84
2023/04/22 11:19:14;;;;;;;9.30;5.90;;;;;;;23.25;21.38;100252.24;112812;1243;23012;-85
2023/04/22 11:22:26;;;;;;;11.60;5.90;;;;;;;23.13;21.58;100249.23;112637;1244;22807;-84
2023/04/22 11:25:40;;;;;;;14.90;12.40;;;;;;;22.96;21.79;100249.38;112566;1244;21952;-85
2023/04/22 11:29:22;;;;;;;;;;;;;;;;;;;;;
2023/04/22 11:32:47;;;;;;;7.40;6.60;;;;;;;22.07;21.80;100244.16;113374;1239;21991;-84
2023/04/22 11:36:24;;;;;;;6.80;5.80;;;;;;;21.89;22.71;100241.13;112849;1239;21994;-85
2023/04/22 11:39:10;;;;;;;7.30;6.60;;;;;;;21.85;22.64;100237.59;112969;1240;22167;-81
2023/04/22 11:42:14;;;;;;;16.50;7.40;;;;;;;21.76;22.68;100232.80;112961;1239;22966;-83
2023/04/22 11:44:55;;;;;;;8.20;7.30;;;;;;;21.68;22.82;100233.88;113141;1239;22041;-79
2023/04/22 11:47:22;;;;;;;7.60;6.20;;;;;;;21.65;23.01;100233.23;113440;1239;23655;-80
2023/04/22 11:50:00;;;;;;;9.20;6.60;;;;;;;21.67;23.14;100231.49;113059;1239;23518;-80
2023/04/22 11:53:00;;;;;;;7.50;6.30;;;;;;;21.64;23.22;100227.52;113140;1239;23034;-80
2023/04/22 11:55:51;;;;;;;7.10;6.40;;;;;;;21.66;23.58;100222.91;112966;1239;21975;-82
2023/04/22 11:58:39;;;;;;;12.30;9.70;;;;;;;21.71;23.70;100225.70;112870;1239;21953;-79
2023/04/22 12:01:22;;;;;;;8.60;5.80;;;;;;;21.72;23.79;100228.59;113126;1240;22805;-81
2023/04/22 12:04:12;;;;;;;14.50;13.10;;;;;;;21.70;23.80;100227.69;112744;1244;23614;-81
2023/04/22 12:06:57;;;;;;;8.90;7.60;;;;;;;21.74;24.06;100225.23;112557;1244;21948;-81
2023/04/22 12:09:40;;;;;;;7.00;5.50;;;;;;;21.81;24.16;100221.23;112439;1244;23737;-80
2023/04/22 12:12:42;;;;;;;;;;;;;;;;;;;;;
2023/04/22 12:15:28;;;;;;;15.70;7.90;;;;;;;21.82;23.60;100219.91;113517;1237;21950;-82
2023/04/22 12:18:39;;;;;;;7.30;6.60;;;;;;;21.61;23.58;100220.73;113408;1237;21956;-82
2023/04/22 12:21:17;;;;;;;10.60;7.50;;;;;;;21.37;23.78;100216.84;113562;1232;21967;-83